PWSweather.com
Personal Weather Stations
Station Observations
KFLSEBAS1
Sebastian Highlands, Sebastian, FL 32958-4362

Sebastian HighlandsSebastian, FL 32958-4362

Lat: 27.8, Lon: -80.48

Elevation: 23

Station Type: Davis Weather Monitor II

www.kflsebas1.com

High Low Average
Temperature 83.2°F28.4°C 72.0°F22.2°C 76.3°F24.6°C
Dew Point 78.2°F25.7°C 70.3°F21.3°C 73.6°F23.1°C
Winds 16.0 mph 25.7 kmh Calm Calm 2.0 mph SSE3.2 kmh SSE
Wind Gusts 22.0 mph35.4 kmh -- 5.0 mph8.0 kmh
Humidity 96% 79% 91%
Pressure 30.02 in1016.6 mb 29.93 in1013.5 mb -
Precipitation 0.00 in0.0 mm - -
Hour Temp Dew Point Humidity Winds Wind Gusts Pressure Precip Precip Rate Daily Precip Total
12:00 AM 73.0°F22.8°C 71.2°F21.8°C 94% Calm Calm -- 30.02 in1016.6 mb 0.00 in0.0 mm 0.00 in0.0 mm 0.00 in0.0 mm
12:05 AM 73.1°F22.8°C 71.3°F21.8°C 94% Calm Calm -- 30.02 in1016.6 mb 0.00 in0.0 mm 0.00 in0.0 mm 0.00 in0.0 mm
12:10 AM 73.2°F22.9°C 71.4°F21.9°C 94% Calm Calm -- 30.01 in1016.3 mb 0.00 in0.0 mm 0.00 in0.0 mm 0.00 in0.0 mm
12:15 AM 73.4°F23.0°C 71.9°F22.2°C 95% Calm Calm -- 30.01 in1016.3 mb 0.00 in0.0 mm 0.00 in0.0 mm 0.00 in0.0 mm
12:20 AM 73.5°F23.1°C 71.7°F22.1°C 94% Calm Calm -- 30.01 in1016.3 mb 0.00 in0.0 mm 0.00 in0.0 mm 0.00 in0.0 mm
12:25 AM 73.5°F23.1°C 71.7°F22.1°C 94% Calm Calm -- 30.00 in1015.9 mb 0.00 in0.0 mm 0.00 in0.0 mm 0.00 in0.0 mm
12:30 AM 73.5°F23.1°C 71.7°F22.1°C 94% Calm Calm -- 30.00 in1015.9 mb 0.00 in0.0 mm 0.00 in0.0 mm 0.00 in0.0 mm
12:35 AM 73.4°F23.0°C 71.6°F22.0°C 94% Calm Calm -- 30.00 in1015.9 mb 0.00 in0.0 mm 0.00 in0.0 mm 0.00 in0.0 mm
12:40 AM 73.4°F23.0°C 71.6°F22.0°C 94% Calm Calm -- 30.00 in1015.9 mb 0.00 in0.0 mm 0.00 in0.0 mm 0.00 in0.0 mm
12:45 AM 73.3°F22.9°C 71.5°F21.9°C 94% Calm Calm -- 29.99 in1015.6 mb 0.00 in0.0 mm 0.00 in0.0 mm 0.00 in0.0 mm
12:50 AM 73.2°F22.9°C 71.4°F21.9°C 94% Calm Calm -- 29.98 in1015.2 mb 0.00 in0.0 mm 0.00 in0.0 mm 0.00 in0.0 mm
12:55 AM 73.1°F22.8°C 71.3°F21.8°C 94% Calm Calm -- 29.97 in1014.9 mb 0.00 in0.0 mm 0.00 in0.0 mm 0.00 in0.0 mm
01:00 AM 73.1°F22.8°C 71.0°F21.7°C 93% Calm Calm -- 29.97 in1014.9 mb 0.00 in0.0 mm 0.00 in0.0 mm 0.00 in0.0 mm
01:05 AM 73.0°F22.8°C 71.2°F21.8°C 94% Calm Calm -- 29.97 in1014.9 mb 0.00 in0.0 mm 0.00 in0.0 mm 0.00 in0.0 mm
01:10 AM 73.0°F22.8°C 71.2°F21.8°C 94% Calm Calm -- 29.97 in1014.9 mb 0.00 in0.0 mm 0.00 in0.0 mm 0.00 in0.0 mm
01:15 AM 73.0°F22.8°C 71.2°F21.8°C 94% Calm Calm -- 29.97 in1014.9 mb 0.00 in0.0 mm 0.00 in0.0 mm 0.00 in0.0 mm
01:20 AM 72.9°F22.7°C 71.1°F21.7°C 94% Calm Calm -- 29.96 in1014.6 mb 0.00 in0.0 mm 0.00 in0.0 mm 0.00 in0.0 mm
01:25 AM 72.9°F22.7°C 71.1°F21.7°C 94% Calm Calm -- 29.97 in1014.9 mb 0.00 in0.0 mm 0.00 in0.0 mm 0.00 in0.0 mm
01:30 AM 72.9°F22.7°C 71.1°F21.7°C 94% Calm Calm -- 29.96 in1014.6 mb 0.00 in0.0 mm 0.00 in0.0 mm 0.00 in0.0 mm
01:35 AM 72.7°F22.6°C 70.9°F21.6°C 94% Calm Calm -- 29.96 in1014.6 mb 0.00 in0.0 mm 0.00 in0.0 mm 0.00 in0.0 mm
01:40 AM 72.5°F22.5°C 70.4°F21.3°C 93% Calm Calm -- 29.96 in1014.6 mb 0.00 in0.0 mm 0.00 in0.0 mm 0.00 in0.0 mm
01:45 AM 72.4°F22.4°C 70.3°F21.3°C 93% Calm Calm -- 29.97 in1014.9 mb 0.00 in0.0 mm 0.00 in0.0 mm 0.00 in0.0 mm
01:50 AM 72.4°F22.4°C 70.3°F21.3°C 93% Calm Calm -- 29.97 in1014.9 mb 0.00 in0.0 mm 0.00 in0.0 mm 0.00 in0.0 mm
01:55 AM 72.4°F22.4°C 70.6°F21.4°C 94% Calm Calm -- 29.96 in1014.6 mb 0.00 in0.0 mm 0.00 in0.0 mm 0.00 in0.0 mm
02:00 AM 72.3°F22.4°C 70.5°F21.4°C 94% Calm Calm -- 29.96 in1014.6 mb 0.00 in0.0 mm 0.00 in0.0 mm 0.00 in0.0 mm
02:05 AM 72.3°F22.4°C 70.5°F21.4°C 94% Calm Calm -- 29.96 in1014.6 mb 0.00 in0.0 mm 0.00 in0.0 mm 0.00 in0.0 mm
02:10 AM 72.3°F22.4°C 70.5°F21.4°C 94% Calm Calm -- 29.96 in1014.6 mb 0.00 in0.0 mm 0.00 in0.0 mm 0.00 in0.0 mm
02:15 AM 72.2°F22.3°C 70.4°F21.3°C 94% Calm Calm -- 29.97 in1014.9 mb 0.00 in0.0 mm 0.00 in0.0 mm 0.00 in0.0 mm
02:20 AM 72.2°F22.3°C 70.4°F21.3°C 94% Calm Calm -- 29.96 in1014.6 mb 0.00 in0.0 mm 0.00 in0.0 mm 0.00 in0.0 mm
02:25 AM 72.1°F22.3°C 70.3°F21.3°C 94% Calm Calm -- 29.96 in1014.6 mb 0.00 in0.0 mm 0.00 in0.0 mm 0.00 in0.0 mm
02:30 AM 72.2°F22.3°C 70.4°F21.3°C 94% Calm Calm -- 29.96 in1014.6 mb 0.00 in0.0 mm 0.00 in0.0 mm 0.00 in0.0 mm
02:35 AM 72.2°F22.3°C 70.4°F21.3°C 94% Calm Calm -- 29.95 in1014.2 mb 0.00 in0.0 mm 0.00 in0.0 mm 0.00 in0.0 mm
02:40 AM 72.2°F22.3°C 70.4°F21.3°C 94% Calm Calm -- 29.95 in1014.2 mb 0.00 in0.0 mm 0.00 in0.0 mm 0.00 in0.0 mm
02:45 AM 72.2°F22.3°C 70.4°F21.3°C 94% Calm Calm -- 29.95 in1014.2 mb 0.00 in0.0 mm 0.00 in0.0 mm 0.00 in0.0 mm
02:50 AM 72.2°F22.3°C 70.4°F21.3°C 94% Calm Calm -- 29.95 in1014.2 mb 0.00 in0.0 mm 0.00 in0.0 mm 0.00 in0.0 mm
02:55 AM 72.3°F22.4°C 70.5°F21.4°C 94% Calm Calm -- 29.95 in1014.2 mb 0.00 in0.0 mm 0.00 in0.0 mm 0.00 in0.0 mm
03:00 AM 72.3°F22.4°C 70.5°F21.4°C 94% Calm Calm -- 29.95 in1014.2 mb 0.00 in0.0 mm 0.00 in0.0 mm 0.00 in0.0 mm
03:05 AM 72.3°F22.4°C 70.5°F21.4°C 94% Calm Calm -- 29.95 in1014.2 mb 0.00 in0.0 mm 0.00 in0.0 mm 0.00 in0.0 mm
03:10 AM 72.3°F22.4°C 70.8°F21.6°C 95% Calm Calm -- 29.95 in1014.2 mb 0.00 in0.0 mm 0.00 in0.0 mm 0.00 in0.0 mm
03:15 AM 72.3°F22.4°C 70.5°F21.4°C 94% Calm Calm -- 29.95 in1014.2 mb 0.00 in0.0 mm 0.00 in0.0 mm 0.00 in0.0 mm
03:20 AM 72.3°F22.4°C 70.5°F21.4°C 94% Calm Calm -- 29.94 in1013.9 mb 0.00 in0.0 mm 0.00 in0.0 mm 0.00 in0.0 mm
03:25 AM 72.3°F22.4°C 70.8°F21.6°C 95% Calm Calm -- 29.94 in1013.9 mb 0.00 in0.0 mm 0.00 in0.0 mm 0.00 in0.0 mm
03:30 AM 72.3°F22.4°C 70.5°F21.4°C 94% Calm Calm -- 29.94 in1013.9 mb 0.00 in0.0 mm 0.00 in0.0 mm 0.00 in0.0 mm
03:35 AM 72.3°F22.4°C 70.5°F21.4°C 94% Calm Calm -- 29.94 in1013.9 mb 0.00 in0.0 mm 0.00 in0.0 mm 0.00 in0.0 mm
03:40 AM 72.2°F22.3°C 70.4°F21.3°C 94% Calm Calm -- 29.94 in1013.9 mb 0.00 in0.0 mm 0.00 in0.0 mm 0.00 in0.0 mm
03:45 AM 72.2°F22.3°C 70.4°F21.3°C 94% Calm Calm -- 29.94 in1013.9 mb 0.00 in0.0 mm 0.00 in0.0 mm 0.00 in0.0 mm
03:50 AM 72.2°F22.3°C 70.4°F21.3°C 94% Calm Calm -- 29.94 in1013.9 mb 0.00 in0.0 mm 0.00 in0.0 mm 0.00 in0.0 mm
03:55 AM 72.2°F22.3°C 70.4°F21.3°C 94% Calm Calm -- 29.94 in1013.9 mb 0.00 in0.0 mm 0.00 in0.0 mm 0.00 in0.0 mm
04:00 AM 72.2°F22.3°C 70.4°F21.3°C 94% Calm Calm -- 29.95 in1014.2 mb 0.00 in0.0 mm 0.00 in0.0 mm 0.00 in0.0 mm
04:05 AM 72.2°F22.3°C 70.4°F21.3°C 94% Calm Calm -- 29.95 in1014.2 mb 0.00 in0.0 mm 0.00 in0.0 mm 0.00 in0.0 mm
04:10 AM 72.1°F22.3°C 70.3°F21.3°C 94% Calm Calm -- 29.94 in1013.9 mb 0.00 in0.0 mm 0.00 in0.0 mm 0.00 in0.0 mm
04:15 AM 72.1°F22.3°C 70.3°F21.3°C 94% Calm Calm -- 29.95 in1014.2 mb 0.00 in0.0 mm 0.00 in0.0 mm 0.00 in0.0 mm
04:20 AM 72.1°F22.3°C 70.6°F21.4°C 95% Calm Calm -- 29.95 in1014.2 mb 0.00 in0.0 mm 0.00 in0.0 mm 0.00 in0.0 mm
04:25 AM 72.1°F22.3°C 70.3°F21.3°C 94% Calm Calm -- 29.95 in1014.2 mb 0.00 in0.0 mm 0.00 in0.0 mm 0.00 in0.0 mm
04:30 AM 72.2°F22.3°C 70.7°F21.5°C 95% Calm Calm -- 29.95 in1014.2 mb 0.00 in0.0 mm 0.00 in0.0 mm 0.00 in0.0 mm
04:35 AM 72.2°F22.3°C 70.7°F21.5°C 95% Calm Calm -- 29.96 in1014.6 mb 0.00 in0.0 mm 0.00 in0.0 mm 0.00 in0.0 mm
04:40 AM 72.2°F22.3°C 70.4°F21.3°C 94% Calm Calm -- 29.96 in1014.6 mb 0.00 in0.0 mm 0.00 in0.0 mm 0.00 in0.0 mm
04:45 AM 72.1°F22.3°C 70.6°F21.4°C 95% Calm Calm -- 29.95 in1014.2 mb 0.00 in0.0 mm 0.00 in0.0 mm 0.00 in0.0 mm
04:50 AM 72.1°F22.3°C 70.6°F21.4°C 95% Calm Calm -- 29.96 in1014.6 mb 0.00 in0.0 mm 0.00 in0.0 mm 0.00 in0.0 mm
04:55 AM 72.1°F22.3°C 70.6°F21.4°C 95% Calm Calm -- 29.95 in1014.2 mb 0.00 in0.0 mm 0.00 in0.0 mm 0.00 in0.0 mm
05:00 AM 72.0°F22.2°C 70.5°F21.4°C 95% Calm Calm -- 29.95 in1014.2 mb 0.00 in0.0 mm 0.00 in0.0 mm 0.00 in0.0 mm
05:05 AM 72.0°F22.2°C 70.5°F21.4°C 95% Calm Calm -- 29.95 in1014.2 mb 0.00 in0.0 mm 0.00 in0.0 mm 0.00 in0.0 mm
05:10 AM 72.0°F22.2°C 70.5°F21.4°C 95% Calm Calm -- 29.95 in1014.2 mb 0.00 in0.0 mm 0.00 in0.0 mm 0.00 in0.0 mm
05:15 AM 72.0°F22.2°C 70.5°F21.4°C 95% Calm Calm -- 29.96 in1014.6 mb 0.00 in0.0 mm 0.00 in0.0 mm 0.00 in0.0 mm
05:20 AM 72.0°F22.2°C 70.5°F21.4°C 95% Calm Calm -- 29.96 in1014.6 mb 0.00 in0.0 mm 0.00 in0.0 mm 0.00 in0.0 mm
05:25 AM 72.0°F22.2°C 70.5°F21.4°C 95% Calm Calm -- 29.96 in1014.6 mb 0.00 in0.0 mm 0.00 in0.0 mm 0.00 in0.0 mm
05:30 AM 72.0°F22.2°C 70.5°F21.4°C 95% Calm Calm -- 29.97 in1014.9 mb 0.00 in0.0 mm 0.00 in0.0 mm 0.00 in0.0 mm
05:35 AM 72.0°F22.2°C 70.5°F21.4°C 95% Calm Calm -- 29.96 in1014.6 mb 0.00 in0.0 mm 0.00 in0.0 mm 0.00 in0.0 mm
05:40 AM 72.0°F22.2°C 70.5°F21.4°C 95% Calm Calm -- 29.97 in1014.9 mb 0.00 in0.0 mm 0.00 in0.0 mm 0.00 in0.0 mm
05:45 AM 72.0°F22.2°C 70.5°F21.4°C 95% Calm Calm -- 29.97 in1014.9 mb 0.00 in0.0 mm 0.00 in0.0 mm 0.00 in0.0 mm
05:50 AM 72.0°F22.2°C 70.5°F21.4°C 95% Calm Calm -- 29.97 in1014.9 mb 0.00 in0.0 mm 0.00 in0.0 mm 0.00 in0.0 mm
05:55 AM 72.0°F22.2°C 70.5°F21.4°C 95% Calm Calm -- 29.97 in1014.9 mb 0.00 in0.0 mm 0.00 in0.0 mm 0.00 in0.0 mm
06:00 AM 72.0°F22.2°C 70.5°F21.4°C 95% Calm Calm -- 29.96 in1014.6 mb 0.00 in0.0 mm 0.00 in0.0 mm 0.00 in0.0 mm
06:05 AM 72.0°F22.2°C 70.5°F21.4°C 95% Calm Calm -- 29.97 in1014.9 mb 0.00 in0.0 mm 0.00 in0.0 mm 0.00 in0.0 mm
06:10 AM 72.1°F22.3°C 70.6°F21.4°C 95% Calm Calm -- 29.97 in1014.9 mb 0.00 in0.0 mm 0.00 in0.0 mm 0.00 in0.0 mm
06:15 AM 72.1°F22.3°C 70.6°F21.4°C 95% Calm Calm -- 29.97 in1014.9 mb 0.00 in0.0 mm 0.00 in0.0 mm 0.00 in0.0 mm
06:20 AM 72.1°F22.3°C 70.6°F21.4°C 95% Calm Calm -- 29.96 in1014.6 mb 0.00 in0.0 mm 0.00 in0.0 mm 0.00 in0.0 mm
06:25 AM 72.2°F22.3°C 70.7°F21.5°C 95% Calm Calm -- 29.97 in1014.9 mb 0.00 in0.0 mm 0.00 in0.0 mm 0.00 in0.0 mm
06:30 AM 72.2°F22.3°C 70.7°F21.5°C 95% Calm Calm -- 29.97 in1014.9 mb 0.00 in0.0 mm 0.00 in0.0 mm 0.00 in0.0 mm
06:35 AM 72.3°F22.4°C 70.8°F21.6°C 95% Calm Calm -- 29.98 in1015.2 mb 0.00 in0.0 mm 0.00 in0.0 mm 0.00 in0.0 mm
06:40 AM 72.5°F22.5°C 71.3°F21.8°C 96% Calm Calm -- 29.98 in1015.2 mb 0.00 in0.0 mm 0.00 in0.0 mm 0.00 in0.0 mm
06:45 AM 72.6°F22.6°C 71.4°F21.9°C 96% Calm Calm -- 29.98 in1015.2 mb 0.00 in0.0 mm 0.00 in0.0 mm 0.00 in0.0 mm
06:50 AM 72.7°F22.6°C 71.5°F21.9°C 96% Calm Calm -- 29.98 in1015.2 mb 0.00 in0.0 mm 0.00 in0.0 mm 0.00 in0.0 mm
06:55 AM 72.8°F22.7°C 71.6°F22.0°C 96% Calm Calm -- 29.98 in1015.2 mb 0.00 in0.0 mm 0.00 in0.0 mm 0.00 in0.0 mm
07:00 AM 72.9°F22.7°C 71.7°F22.1°C 96% Calm Calm -- 29.98 in1015.2 mb 0.00 in0.0 mm 0.00 in0.0 mm 0.00 in0.0 mm
07:05 AM 73.0°F22.8°C 71.8°F22.1°C 96% Calm Calm -- 29.99 in1015.6 mb 0.00 in0.0 mm 0.00 in0.0 mm 0.00 in0.0 mm
07:10 AM 73.1°F22.8°C 71.6°F22.0°C 95% Calm Calm -- 29.98 in1015.2 mb 0.00 in0.0 mm 0.00 in0.0 mm 0.00 in0.0 mm
07:15 AM 73.2°F22.9°C 72.0°F22.2°C 96% Calm Calm -- 29.99 in1015.6 mb 0.00 in0.0 mm 0.00 in0.0 mm 0.00 in0.0 mm
07:20 AM 73.4°F23.0°C 72.2°F22.3°C 96% Calm Calm -- 30.00 in1015.9 mb 0.00 in0.0 mm 0.00 in0.0 mm 0.00 in0.0 mm
07:25 AM 73.7°F23.2°C 72.5°F22.5°C 96% Calm Calm -- 30.00 in1015.9 mb 0.00 in0.0 mm 0.00 in0.0 mm 0.00 in0.0 mm
07:30 AM 73.9°F23.3°C 72.7°F22.6°C 96% Calm Calm -- 30.00 in1015.9 mb 0.00 in0.0 mm 0.00 in0.0 mm 0.00 in0.0 mm
07:35 AM 74.1°F23.4°C 72.9°F22.7°C 96% Calm Calm -- 30.00 in1015.9 mb 0.00 in0.0 mm 0.00 in0.0 mm 0.00 in0.0 mm
07:40 AM 74.4°F23.6°C 73.2°F22.9°C 96% Calm Calm -- 30.00 in1015.9 mb 0.00 in0.0 mm 0.00 in0.0 mm 0.00 in0.0 mm
07:45 AM 74.7°F23.7°C 73.5°F23.1°C 96% Calm Calm -- 30.00 in1015.9 mb 0.00 in0.0 mm 0.00 in0.0 mm 0.00 in0.0 mm
07:50 AM 74.9°F23.8°C 73.7°F23.2°C 96% Calm Calm -- 29.99 in1015.6 mb 0.00 in0.0 mm 0.00 in0.0 mm 0.00 in0.0 mm
07:55 AM 75.2°F24.0°C 74.0°F23.3°C 96% Calm Calm -- 29.99 in1015.6 mb 0.00 in0.0 mm 0.00 in0.0 mm 0.00 in0.0 mm
08:00 AM 75.5°F24.2°C 74.3°F23.5°C 96% Calm Calm -- 30.01 in1016.3 mb 0.00 in0.0 mm 0.00 in0.0 mm 0.00 in0.0 mm
08:05 AM 75.7°F24.3°C 74.2°F23.4°C 95% Calm Calm -- 30.00 in1015.9 mb 0.00 in0.0 mm 0.00 in0.0 mm 0.00 in0.0 mm
08:10 AM 75.9°F24.4°C 74.4°F23.6°C 95% Calm Calm -- 30.00 in1015.9 mb 0.00 in0.0 mm 0.00 in0.0 mm 0.00 in0.0 mm
08:15 AM 76.3°F24.6°C 75.1°F23.9°C 96% Calm Calm -- 30.00 in1015.9 mb 0.00 in0.0 mm 0.00 in0.0 mm 0.00 in0.0 mm
08:20 AM 76.5°F24.7°C 74.7°F23.7°C 94% Calm Calm -- 30.00 in1015.9 mb 0.00 in0.0 mm 0.00 in0.0 mm 0.00 in0.0 mm
08:25 AM 76.8°F24.9°C 74.6°F23.7°C 93% Calm Calm -- 30.00 in1015.9 mb 0.00 in0.0 mm 0.00 in0.0 mm 0.00 in0.0 mm
08:30 AM 76.9°F24.9°C 74.7°F23.7°C 93% Calm Calm 11.0 mph17.7 kmh 30.00 in1015.9 mb 0.00 in0.0 mm 0.00 in0.0 mm 0.00 in0.0 mm
08:35 AM 76.9°F24.9°C 74.1°F23.4°C 91% 7.0 mph S11.3 kmh S 11.0 mph17.7 kmh 30.01 in1016.3 mb 0.00 in0.0 mm 0.00 in0.0 mm 0.00 in0.0 mm
08:40 AM 77.1°F25.1°C 73.9°F23.3°C 90% Calm Calm 11.0 mph17.7 kmh 30.00 in1015.9 mb 0.00 in0.0 mm 0.00 in0.0 mm 0.00 in0.0 mm
08:45 AM 77.6°F25.3°C 74.4°F23.6°C 90% Calm Calm 11.0 mph17.7 kmh 30.01 in1016.3 mb 0.00 in0.0 mm 0.00 in0.0 mm 0.00 in0.0 mm
08:50 AM 78.1°F25.6°C 74.6°F23.7°C 89% Calm Calm 11.0 mph17.7 kmh 30.00 in1015.9 mb 0.00 in0.0 mm 0.00 in0.0 mm 0.00 in0.0 mm
08:55 AM 78.6°F25.9°C 75.8°F24.3°C 91% Calm Calm 11.0 mph17.7 kmh 30.00 in1015.9 mb 0.00 in0.0 mm 0.00 in0.0 mm 0.00 in0.0 mm
09:00 AM 79.0°F26.1°C 74.8°F23.8°C 87% 7.0 mph SE11.3 kmh SE 7.0 mph11.3 kmh 30.01 in1016.3 mb 0.00 in0.0 mm 0.00 in0.0 mm 0.00 in0.0 mm
09:05 AM 79.5°F26.4°C 75.3°F24.1°C 87% Calm Calm 7.0 mph11.3 kmh 30.01 in1016.3 mb 0.00 in0.0 mm 0.00 in0.0 mm 0.00 in0.0 mm
09:10 AM 80.0°F26.7°C 75.1°F23.9°C 85% Calm Calm 12.0 mph19.3 kmh 30.01 in1016.3 mb 0.00 in0.0 mm 0.00 in0.0 mm 0.00 in0.0 mm
09:15 AM 80.3°F26.8°C 74.7°F23.7°C 83% 9.0 mph S14.5 kmh S 12.0 mph19.3 kmh 30.01 in1016.3 mb 0.00 in0.0 mm 0.00 in0.0 mm 0.00 in0.0 mm
09:20 AM 80.5°F26.9°C 74.9°F23.8°C 83% 4.0 mph SW6.4 kmh SW 12.0 mph19.3 kmh 30.01 in1016.3 mb 0.00 in0.0 mm 0.00 in0.0 mm 0.00 in0.0 mm
09:25 AM 80.7°F27.1°C 75.4°F24.1°C 84% Calm Calm 12.0 mph19.3 kmh 30.01 in1016.3 mb 0.00 in0.0 mm 0.00 in0.0 mm 0.00 in0.0 mm
09:30 AM 80.8°F27.1°C 74.8°F23.8°C 82% 7.0 mph S11.3 kmh S 12.0 mph19.3 kmh 30.02 in1016.6 mb 0.00 in0.0 mm 0.00 in0.0 mm 0.00 in0.0 mm
09:35 AM 81.1°F27.3°C 75.1°F23.9°C 82% 5.0 mph SSW8.0 kmh SSW 12.0 mph19.3 kmh 30.01 in1016.3 mb 0.00 in0.0 mm 0.00 in0.0 mm 0.00 in0.0 mm
09:40 AM 81.3°F27.4°C 75.3°F24.1°C 82% 2.0 mph SSE3.2 kmh SSE 12.0 mph19.3 kmh 30.02 in1016.6 mb 0.00 in0.0 mm 0.00 in0.0 mm 0.00 in0.0 mm
09:45 AM 81.5°F27.5°C 75.8°F24.3°C 83% 4.0 mph S6.4 kmh S 12.0 mph19.3 kmh 30.02 in1016.6 mb 0.00 in0.0 mm 0.00 in0.0 mm 0.00 in0.0 mm
09:50 AM 81.5°F27.5°C 74.7°F23.7°C 80% 5.0 mph S8.0 kmh S 12.0 mph19.3 kmh 30.02 in1016.6 mb 0.00 in0.0 mm 0.00 in0.0 mm 0.00 in0.0 mm
09:55 AM 81.7°F27.6°C 75.3°F24.1°C 81% Calm Calm 12.0 mph19.3 kmh 30.02 in1016.6 mb 0.00 in0.0 mm 0.00 in0.0 mm 0.00 in0.0 mm
10:00 AM 81.9°F27.7°C 75.9°F24.4°C 82% Calm Calm -- 30.02 in1016.6 mb 0.00 in0.0 mm 0.00 in0.0 mm 0.00 in0.0 mm
10:05 AM 82.2°F27.9°C 75.4°F24.1°C 80% 4.0 mph ESE6.4 kmh ESE 8.0 mph12.9 kmh 30.02 in1016.6 mb 0.00 in0.0 mm 0.00 in0.0 mm 0.00 in0.0 mm
10:10 AM 82.6°F28.1°C 75.8°F24.3°C 80% Calm Calm 8.0 mph12.9 kmh 30.02 in1016.6 mb 0.00 in0.0 mm 0.00 in0.0 mm 0.00 in0.0 mm
10:15 AM 83.0°F28.3°C 75.8°F24.3°C 79% 5.0 mph E8.0 kmh E 11.0 mph17.7 kmh 30.02 in1016.6 mb 0.00 in0.0 mm 0.00 in0.0 mm 0.00 in0.0 mm
10:20 AM 83.2°F28.4°C 76.4°F24.7°C 80% 12.0 mph ESE19.3 kmh ESE 15.0 mph24.1 kmh 30.02 in1016.6 mb 0.00 in0.0 mm 0.00 in0.0 mm 0.00 in0.0 mm
10:25 AM 82.8°F28.2°C 76.4°F24.7°C 81% 6.0 mph SE9.7 kmh SE 15.0 mph24.1 kmh 30.02 in1016.6 mb 0.00 in0.0 mm 0.00 in0.0 mm 0.00 in0.0 mm
10:30 AM 82.4°F28.0°C 75.6°F24.2°C 80% 5.0 mph ESE8.0 kmh ESE 15.0 mph24.1 kmh 30.01 in1016.3 mb 0.00 in0.0 mm 0.00 in0.0 mm 0.00 in0.0 mm
10:35 AM 82.1°F27.8°C 75.7°F24.3°C 81% 5.0 mph ESE8.0 kmh ESE 15.0 mph24.1 kmh 30.01 in1016.3 mb 0.00 in0.0 mm 0.00 in0.0 mm 0.00 in0.0 mm
10:40 AM 82.0°F27.8°C 76.3°F24.6°C 83% 6.0 mph SE9.7 kmh SE 15.0 mph24.1 kmh 30.02 in1016.6 mb 0.00 in0.0 mm 0.00 in0.0 mm 0.00 in0.0 mm
10:45 AM 82.2°F27.9°C 76.5°F24.7°C 83% 11.0 mph ESE17.7 kmh ESE 15.0 mph24.1 kmh 30.01 in1016.3 mb 0.00 in0.0 mm 0.00 in0.0 mm 0.00 in0.0 mm
10:50 AM 82.2°F27.9°C 76.2°F24.6°C 82% 5.0 mph E8.0 kmh E 15.0 mph24.1 kmh 30.02 in1016.6 mb 0.00 in0.0 mm 0.00 in0.0 mm 0.00 in0.0 mm
10:55 AM 81.9°F27.7°C 75.5°F24.2°C 81% 3.0 mph SE4.8 kmh SE 15.0 mph24.1 kmh 30.02 in1016.6 mb 0.00 in0.0 mm 0.00 in0.0 mm 0.00 in0.0 mm
11:00 AM 81.6°F27.6°C 75.6°F24.2°C 82% 9.0 mph ESE14.5 kmh ESE 9.0 mph14.5 kmh 30.01 in1016.3 mb 0.00 in0.0 mm 0.00 in0.0 mm 0.00 in0.0 mm
11:05 AM 81.2°F27.3°C 75.2°F24.0°C 82% 9.0 mph SE14.5 kmh SE 11.0 mph17.7 kmh 30.01 in1016.3 mb 0.00 in0.0 mm 0.00 in0.0 mm 0.00 in0.0 mm
11:10 AM 81.2°F27.3°C 76.6°F24.8°C 86% 7.0 mph E11.3 kmh E 14.0 mph22.5 kmh 30.01 in1016.3 mb 0.00 in0.0 mm 0.00 in0.0 mm 0.00 in0.0 mm
11:15 AM 81.1°F27.3°C 76.2°F24.6°C 85% 8.0 mph ESE12.9 kmh ESE 14.0 mph22.5 kmh 30.01 in1016.3 mb 0.00 in0.0 mm 0.00 in0.0 mm 0.00 in0.0 mm
11:20 AM 80.9°F27.2°C 76.3°F24.6°C 86% Calm Calm 14.0 mph22.5 kmh 30.01 in1016.3 mb 0.00 in0.0 mm 0.00 in0.0 mm 0.00 in0.0 mm
11:25 AM 80.9°F27.2°C 76.7°F24.8°C 87% Calm Calm 14.0 mph22.5 kmh 30.01 in1016.3 mb 0.04 in1.0 mm 0.48 in12.2 mm 0.04 in1.0 mm
11:30 AM 80.5°F26.9°C 76.3°F24.6°C 87% Calm Calm 14.0 mph22.5 kmh 30.00 in1015.9 mb 0.06 in1.5 mm 0.24 in6.1 mm 0.06 in1.5 mm
11:35 AM 80.2°F26.8°C 76.7°F24.8°C 89% Calm Calm 14.0 mph22.5 kmh 30.01 in1016.3 mb 0.07 in1.8 mm 0.12 in3.0 mm 0.07 in1.8 mm
11:40 AM 80.4°F26.9°C 77.9°F25.5°C 92% Calm Calm 14.0 mph22.5 kmh 30.01 in1016.3 mb 0.07 in1.8 mm 0.00 in0.0 mm 0.07 in1.8 mm
11:45 AM 80.4°F26.9°C 78.2°F25.7°C 93% Calm Calm 14.0 mph22.5 kmh 30.00 in1015.9 mb 0.07 in1.8 mm 0.00 in0.0 mm 0.07 in1.8 mm
11:50 AM 80.0°F26.7°C 76.8°F24.9°C 90% 5.0 mph SE8.0 kmh SE 14.0 mph22.5 kmh 30.01 in1016.3 mb 0.07 in1.8 mm 0.00 in0.0 mm 0.07 in1.8 mm
11:55 AM 79.8°F26.6°C 76.9°F24.9°C 91% 5.0 mph SE8.0 kmh SE 14.0 mph22.5 kmh 30.01 in1016.3 mb 0.08 in2.0 mm 0.12 in3.0 mm 0.08 in2.0 mm
12:00 PM 79.7°F26.5°C 76.5°F24.7°C 90% Calm Calm -- 30.01 in1016.3 mb 0.12 in3.0 mm 0.04 in1.0 mm 0.12 in3.0 mm
12:05 PM 80.1°F26.7°C 78.2°F25.7°C 94% Calm Calm -- 30.01 in1016.3 mb 0.13 in3.3 mm 0.12 in3.0 mm 0.13 in3.3 mm
12:10 PM 80.6°F27.0°C 78.1°F25.6°C 92% Calm Calm -- 30.00 in1015.9 mb 0.13 in3.3 mm 0.00 in0.0 mm 0.13 in3.3 mm
12:15 PM 80.4°F26.9°C 77.9°F25.5°C 92% 1.0 mph E1.6 kmh E 1.0 mph1.6 kmh 30.00 in1015.9 mb 0.13 in3.3 mm 0.00 in0.0 mm 0.13 in3.3 mm
12:20 PM 79.8°F26.6°C 76.6°F24.8°C 90% 5.0 mph ESE8.0 kmh ESE 13.0 mph20.9 kmh 30.00 in1015.9 mb 0.13 in3.3 mm 0.00 in0.0 mm 0.13 in3.3 mm
12:25 PM 79.5°F26.4°C 76.3°F24.6°C 90% 8.0 mph SE12.9 kmh SE 13.0 mph20.9 kmh 29.99 in1015.6 mb 0.13 in3.3 mm 0.00 in0.0 mm 0.13 in3.3 mm
12:30 PM 79.3°F26.3°C 76.1°F24.5°C 90% 5.0 mph SE8.0 kmh SE 13.0 mph20.9 kmh 29.99 in1015.6 mb 0.14 in3.6 mm 0.12 in3.0 mm 0.14 in3.6 mm
12:35 PM 79.0°F26.1°C 76.2°F24.6°C 91% Calm Calm 13.0 mph20.9 kmh 30.00 in1015.9 mb 0.16 in4.1 mm 0.24 in6.1 mm 0.16 in4.1 mm
12:40 PM 78.7°F25.9°C 75.5°F24.2°C 90% 2.0 mph S3.2 kmh S 13.0 mph20.9 kmh 30.00 in1015.9 mb 0.16 in4.1 mm 0.00 in0.0 mm 0.16 in4.1 mm
12:45 PM 78.6°F25.9°C 76.1°F24.5°C 92% Calm Calm 13.0 mph20.9 kmh 29.99 in1015.6 mb 0.17 in4.3 mm 0.12 in3.0 mm 0.17 in4.3 mm
12:50 PM 78.5°F25.8°C 75.7°F24.3°C 91% 3.0 mph S4.8 kmh S 13.0 mph20.9 kmh 29.99 in1015.6 mb 0.23 in5.8 mm 0.72 in18.3 mm 0.23 in5.8 mm
12:55 PM 78.4°F25.8°C 75.9°F24.4°C 92% Calm Calm 13.0 mph20.9 kmh 29.99 in1015.6 mb 0.26 in6.6 mm 0.36 in9.1 mm 0.26 in6.6 mm
01:00 PM 78.5°F25.8°C 76.0°F24.4°C 92% Calm Calm -- 30.00 in1015.9 mb 0.15 in3.8 mm 0.00 in0.0 mm 0.26 in6.6 mm
01:05 PM 78.5°F25.8°C 77.3°F25.2°C 96% Calm Calm -- 29.98 in1015.2 mb 0.16 in4.1 mm 0.12 in3.0 mm 0.27 in6.9 mm
01:10 PM 78.4°F25.8°C 75.9°F24.4°C 92% 3.0 mph SE4.8 kmh SE 10.0 mph16.1 kmh 29.98 in1015.2 mb 0.21 in5.3 mm 0.60 in15.2 mm 0.32 in8.1 mm
01:15 PM 78.1°F25.6°C 75.6°F24.2°C 92% 8.0 mph ESE12.9 kmh ESE 10.0 mph16.1 kmh 29.98 in1015.2 mb 0.21 in5.3 mm 0.00 in0.0 mm 0.32 in8.1 mm
01:20 PM 77.8°F25.4°C 75.3°F24.1°C 92% 4.0 mph ESE6.4 kmh ESE 10.0 mph16.1 kmh 29.97 in1014.9 mb 0.21 in5.3 mm 0.00 in0.0 mm 0.32 in8.1 mm
01:25 PM 77.7°F25.4°C 75.5°F24.2°C 93% 5.0 mph SE8.0 kmh SE 10.0 mph16.1 kmh 29.99 in1015.6 mb 0.21 in5.3 mm 0.00 in0.0 mm 0.32 in8.1 mm
01:30 PM 77.3°F25.2°C 74.8°F23.8°C 92% 3.0 mph SE4.8 kmh SE 10.0 mph16.1 kmh 29.98 in1015.2 mb 0.21 in5.3 mm 0.00 in0.0 mm 0.32 in8.1 mm
01:35 PM 76.4°F24.7°C 73.3°F22.9°C 90% 3.0 mph ESE4.8 kmh ESE 10.0 mph16.1 kmh 29.98 in1015.2 mb 0.22 in5.6 mm 0.12 in3.0 mm 0.33 in8.4 mm
01:40 PM 75.7°F24.3°C 72.9°F22.7°C 91% 9.0 mph SE14.5 kmh SE 11.0 mph17.7 kmh 29.98 in1015.2 mb 0.26 in6.6 mm 0.48 in12.2 mm 0.37 in9.4 mm
01:45 PM 75.4°F24.1°C 72.6°F22.6°C 91% 2.0 mph SE3.2 kmh SE 14.0 mph22.5 kmh 29.99 in1015.6 mb 0.30 in7.6 mm 0.48 in12.2 mm 0.41 in10.4 mm
01:50 PM 75.3°F24.1°C 72.8°F22.7°C 92% 3.0 mph SE4.8 kmh SE 14.0 mph22.5 kmh 29.99 in1015.6 mb 0.30 in7.6 mm 0.00 in0.0 mm 0.41 in10.4 mm
01:55 PM 75.5°F24.2°C 73.3°F22.9°C 93% 7.0 mph SE11.3 kmh SE 14.0 mph22.5 kmh 29.98 in1015.2 mb 0.31 in7.9 mm 0.12 in3.0 mm 0.42 in10.7 mm
02:00 PM 75.5°F24.2°C 73.3°F22.9°C 93% 7.0 mph S11.3 kmh S 7.0 mph11.3 kmh 29.98 in1015.2 mb 0.17 in4.3 mm 0.00 in0.0 mm 0.42 in10.7 mm
02:05 PM 75.1°F23.9°C 72.9°F22.7°C 93% 3.0 mph S4.8 kmh S 13.0 mph20.9 kmh 29.97 in1014.9 mb 0.17 in4.3 mm 0.00 in0.0 mm 0.42 in10.7 mm
02:10 PM 75.0°F23.9°C 72.8°F22.7°C 93% 2.0 mph S3.2 kmh S 13.0 mph20.9 kmh 29.97 in1014.9 mb 0.17 in4.3 mm 0.00 in0.0 mm 0.42 in10.7 mm
02:15 PM 74.9°F23.8°C 72.7°F22.6°C 93% 5.0 mph SE8.0 kmh SE 13.0 mph20.9 kmh 29.98 in1015.2 mb 0.17 in4.3 mm 0.00 in0.0 mm 0.42 in10.7 mm
02:20 PM 74.8°F23.8°C 72.6°F22.6°C 93% 3.0 mph S4.8 kmh S 13.0 mph20.9 kmh 29.97 in1014.9 mb 0.17 in4.3 mm 0.00 in0.0 mm 0.42 in10.7 mm
02:25 PM 74.9°F23.8°C 72.7°F22.6°C 93% 4.0 mph SE6.4 kmh SE 13.0 mph20.9 kmh 29.97 in1014.9 mb 0.17 in4.3 mm 0.00 in0.0 mm 0.42 in10.7 mm
02:30 PM 75.0°F23.9°C 72.8°F22.7°C 93% 2.0 mph SE3.2 kmh SE 13.0 mph20.9 kmh 29.96 in1014.6 mb 0.17 in4.3 mm 0.00 in0.0 mm 0.42 in10.7 mm
02:35 PM 75.6°F24.2°C 74.1°F23.4°C 95% 5.0 mph SE8.0 kmh SE 13.0 mph20.9 kmh 29.95 in1014.2 mb 0.17 in4.3 mm 0.00 in0.0 mm 0.42 in10.7 mm
02:40 PM 76.2°F24.6°C 75.0°F23.9°C 96% 2.0 mph SE3.2 kmh SE 13.0 mph20.9 kmh 29.95 in1014.2 mb 0.17 in4.3 mm 0.00 in0.0 mm 0.42 in10.7 mm
02:45 PM 77.0°F25.0°C 75.8°F24.3°C 96% 5.0 mph SE8.0 kmh SE 15.0 mph24.1 kmh 29.95 in1014.2 mb 0.17 in4.3 mm 0.00 in0.0 mm 0.42 in10.7 mm
02:50 PM 77.6°F25.3°C 76.4°F24.7°C 96% 5.0 mph ESE8.0 kmh ESE 15.0 mph24.1 kmh 29.96 in1014.6 mb 0.17 in4.3 mm 0.00 in0.0 mm 0.42 in10.7 mm
02:55 PM 78.0°F25.6°C 76.8°F24.9°C 96% 8.0 mph SE12.9 kmh SE 18.0 mph29.0 kmh 29.96 in1014.6 mb 0.17 in4.3 mm 0.00 in0.0 mm 0.42 in10.7 mm
03:00 PM 78.1°F25.6°C 76.6°F24.8°C 95% 16.0 mph SE25.7 kmh SE 22.0 mph35.4 kmh 29.95 in1014.2 mb 0.00 in0.0 mm 0.00 in0.0 mm 0.42 in10.7 mm
03:05 PM 78.0°F25.6°C 76.1°F24.5°C 94% 3.0 mph SE4.8 kmh SE 22.0 mph35.4 kmh 29.95 in1014.2 mb 0.00 in0.0 mm 0.00 in0.0 mm 0.42 in10.7 mm
03:10 PM 78.3°F25.7°C 76.4°F24.7°C 94% 14.0 mph S22.5 kmh S 22.0 mph35.4 kmh 29.93 in1013.5 mb 0.00 in0.0 mm 0.00 in0.0 mm 0.42 in10.7 mm
03:15 PM 78.3°F25.7°C 76.1°F24.5°C 93% 6.0 mph SE9.7 kmh SE 22.0 mph35.4 kmh 29.93 in1013.5 mb 0.00 in0.0 mm 0.00 in0.0 mm 0.42 in10.7 mm
03:20 PM 78.5°F25.8°C 76.0°F24.4°C 92% 7.0 mph SSW11.3 kmh SSW 22.0 mph35.4 kmh 29.93 in1013.5 mb 0.00 in0.0 mm 0.00 in0.0 mm 0.42 in10.7 mm
03:25 PM 78.7°F25.9°C 75.9°F24.4°C 91% 6.0 mph SE9.7 kmh SE 22.0 mph35.4 kmh 29.93 in1013.5 mb 0.00 in0.0 mm 0.00 in0.0 mm 0.42 in10.7 mm
03:30 PM 79.1°F26.2°C 76.3°F24.6°C 91% 6.0 mph SE9.7 kmh SE 22.0 mph35.4 kmh 29.93 in1013.5 mb 0.00 in0.0 mm 0.00 in0.0 mm 0.42 in10.7 mm
03:35 PM 79.2°F26.2°C 75.7°F24.3°C 89% 10.0 mph S16.1 kmh S 22.0 mph35.4 kmh 29.94 in1013.9 mb 0.00 in0.0 mm 0.00 in0.0 mm 0.42 in10.7 mm
03:40 PM 79.1°F26.2°C 75.6°F24.2°C 89% 5.0 mph S8.0 kmh S 22.0 mph35.4 kmh 29.94 in1013.9 mb 0.00 in0.0 mm 0.00 in0.0 mm 0.42 in10.7 mm
03:45 PM 79.3°F26.3°C 75.4°F24.1°C 88% 7.0 mph SSE11.3 kmh SSE 22.0 mph35.4 kmh 29.93 in1013.5 mb 0.00 in0.0 mm 0.00 in0.0 mm 0.42 in10.7 mm
03:50 PM 79.3°F26.3°C 75.4°F24.1°C 88% 7.0 mph SSE11.3 kmh SSE 22.0 mph35.4 kmh 29.94 in1013.9 mb 0.00 in0.0 mm 0.00 in0.0 mm 0.42 in10.7 mm
03:55 PM 79.4°F26.3°C 75.2°F24.0°C 87% 11.0 mph SE17.7 kmh SE 22.0 mph35.4 kmh 29.94 in1013.9 mb 0.00 in0.0 mm 0.00 in0.0 mm 0.42 in10.7 mm
04:00 PM 79.4°F26.3°C 75.2°F24.0°C 87% 15.0 mph SSE24.1 kmh SSE 15.0 mph24.1 kmh 29.94 in1013.9 mb 0.00 in0.0 mm 0.00 in0.0 mm 0.42 in10.7 mm
04:05 PM 79.3°F26.3°C 75.1°F23.9°C 87% Calm Calm 15.0 mph24.1 kmh 29.95 in1014.2 mb 0.00 in0.0 mm 0.00 in0.0 mm 0.42 in10.7 mm
04:10 PM 79.3°F26.3°C 75.1°F23.9°C 87% 4.0 mph SSE6.4 kmh SSE 15.0 mph24.1 kmh 29.94 in1013.9 mb 0.00 in0.0 mm 0.00 in0.0 mm 0.42 in10.7 mm
04:15 PM 79.2°F26.2°C 75.0°F23.9°C 87% 4.0 mph SSE6.4 kmh SSE 15.0 mph24.1 kmh 29.94 in1013.9 mb 0.00 in0.0 mm 0.00 in0.0 mm 0.42 in10.7 mm
04:20 PM 79.0°F26.1°C 74.8°F23.8°C 87% 9.0 mph SSE14.5 kmh SSE 15.0 mph24.1 kmh 29.94 in1013.9 mb 0.00 in0.0 mm 0.00 in0.0 mm 0.42 in10.7 mm
04:25 PM 79.0°F26.1°C 74.8°F23.8°C 87% 3.0 mph SE4.8 kmh SE 15.0 mph24.1 kmh 29.94 in1013.9 mb 0.00 in0.0 mm 0.00 in0.0 mm 0.42 in10.7 mm
04:30 PM 78.9°F26.1°C 74.7°F23.7°C 87% 7.0 mph S11.3 kmh S 15.0 mph24.1 kmh 29.95 in1014.2 mb 0.00 in0.0 mm 0.00 in0.0 mm 0.42 in10.7 mm
04:35 PM 78.8°F26.0°C 74.6°F23.7°C 87% 8.0 mph SE12.9 kmh SE 15.0 mph24.1 kmh 29.95 in1014.2 mb 0.00 in0.0 mm 0.00 in0.0 mm 0.42 in10.7 mm
04:40 PM 78.8°F26.0°C 74.6°F23.7°C 87% 1.0 mph E1.6 kmh E 15.0 mph24.1 kmh 29.96 in1014.6 mb 0.00 in0.0 mm 0.00 in0.0 mm 0.42 in10.7 mm
04:45 PM 78.8°F26.0°C 74.6°F23.7°C 87% 7.0 mph SSE11.3 kmh SSE 15.0 mph24.1 kmh 29.97 in1014.9 mb 0.00 in0.0 mm 0.00 in0.0 mm 0.42 in10.7 mm
04:50 PM 78.7°F25.9°C 74.9°F23.8°C 88% Calm Calm 15.0 mph24.1 kmh 29.95 in1014.2 mb 0.00 in0.0 mm 0.00 in0.0 mm 0.42 in10.7 mm
04:55 PM 78.7°F25.9°C 74.9°F23.8°C 88% Calm Calm 15.0 mph24.1 kmh 29.96 in1014.6 mb 0.00 in0.0 mm 0.00 in0.0 mm 0.42 in10.7 mm
05:00 PM 78.7°F25.9°C 74.9°F23.8°C 88% Calm Calm -- 29.96 in1014.6 mb 0.00 in0.0 mm 0.00 in0.0 mm 0.42 in10.7 mm
05:05 PM 78.7°F25.9°C 74.9°F23.8°C 88% Calm Calm -- 29.95 in1014.2 mb 0.00 in0.0 mm 0.00 in0.0 mm 0.42 in10.7 mm
05:10 PM 78.5°F25.8°C 74.3°F23.5°C 87% 1.0 mph SSE1.6 kmh SSE 13.0 mph20.9 kmh 29.96 in1014.6 mb 0.00 in0.0 mm 0.00 in0.0 mm 0.42 in10.7 mm
05:15 PM 78.4°F25.8°C 74.2°F23.4°C 87% 2.0 mph SE3.2 kmh SE 13.0 mph20.9 kmh 29.96 in1014.6 mb 0.00 in0.0 mm 0.00 in0.0 mm 0.42 in10.7 mm
05:20 PM 78.4°F25.8°C 74.2°F23.4°C 87% 5.0 mph S8.0 kmh S 13.0 mph20.9 kmh 29.96 in1014.6 mb 0.00 in0.0 mm 0.00 in0.0 mm 0.42 in10.7 mm
05:25 PM 78.3°F25.7°C 74.1°F23.4°C 87% 6.0 mph S9.7 kmh S 13.0 mph20.9 kmh 29.97 in1014.9 mb 0.00 in0.0 mm 0.00 in0.0 mm 0.42 in10.7 mm
05:30 PM 78.4°F25.8°C 74.6°F23.7°C 88% 7.0 mph S11.3 kmh S 13.0 mph20.9 kmh 29.97 in1014.9 mb 0.00 in0.0 mm 0.00 in0.0 mm 0.42 in10.7 mm
05:35 PM 78.4°F25.8°C 74.6°F23.7°C 88% 6.0 mph S9.7 kmh S 13.0 mph20.9 kmh 29.98 in1015.2 mb 0.00 in0.0 mm 0.00 in0.0 mm 0.42 in10.7 mm
05:40 PM 78.4°F25.8°C 74.6°F23.7°C 88% 8.0 mph SSE12.9 kmh SSE 13.0 mph20.9 kmh 29.98 in1015.2 mb 0.00 in0.0 mm 0.00 in0.0 mm 0.42 in10.7 mm
05:45 PM 78.4°F25.8°C 74.6°F23.7°C 88% Calm Calm 13.0 mph20.9 kmh 29.97 in1014.9 mb 0.00 in0.0 mm 0.00 in0.0 mm 0.42 in10.7 mm
05:50 PM 78.4°F25.8°C 74.9°F23.8°C 89% Calm Calm 13.0 mph20.9 kmh 29.97 in1014.9 mb 0.00 in0.0 mm 0.00 in0.0 mm 0.42 in10.7 mm
05:55 PM 78.4°F25.8°C 74.6°F23.7°C 88% Calm Calm 13.0 mph20.9 kmh 29.98 in1015.2 mb 0.00 in0.0 mm 0.00 in0.0 mm 0.42 in10.7 mm
06:00 PM 78.3°F25.7°C 74.5°F23.6°C 88% Calm Calm -- 29.97 in1014.9 mb 0.00 in0.0 mm 0.00 in0.0 mm 0.42 in10.7 mm
06:05 PM 78.3°F25.7°C 74.5°F23.6°C 88% Calm Calm -- 29.97 in1014.9 mb 0.00 in0.0 mm 0.00 in0.0 mm 0.42 in10.7 mm
06:10 PM 78.3°F25.7°C 74.5°F23.6°C 88% Calm Calm -- 29.98 in1015.2 mb 0.00 in0.0 mm 0.00 in0.0 mm 0.42 in10.7 mm
06:15 PM 78.3°F25.7°C 74.8°F23.8°C 89% Calm Calm -- 29.98 in1015.2 mb 0.00 in0.0 mm 0.00 in0.0 mm 0.42 in10.7 mm
06:20 PM 78.3°F25.7°C 74.8°F23.8°C 89% Calm Calm -- 29.98 in1015.2 mb 0.00 in0.0 mm 0.00 in0.0 mm 0.42 in10.7 mm
06:25 PM 78.3°F25.7°C 75.5°F24.2°C 91% Calm Calm -- 29.98 in1015.2 mb 0.00 in0.0 mm 0.00 in0.0 mm 0.42 in10.7 mm
06:30 PM 78.3°F25.7°C 74.8°F23.8°C 89% Calm Calm -- 29.99 in1015.6 mb 0.00 in0.0 mm 0.00 in0.0 mm 0.42 in10.7 mm
06:35 PM 78.2°F25.7°C 75.7°F24.3°C 92% Calm Calm -- 29.99 in1015.6 mb 0.00 in0.0 mm 0.00 in0.0 mm 0.42 in10.7 mm
06:40 PM 78.3°F25.7°C 75.5°F24.2°C 91% Calm Calm -- 29.99 in1015.6 mb 0.00 in0.0 mm 0.00 in0.0 mm 0.42 in10.7 mm
06:45 PM 78.2°F25.7°C 75.7°F24.3°C 92% Calm Calm -- 29.99 in1015.6 mb 0.00 in0.0 mm 0.00 in0.0 mm 0.42 in10.7 mm
06:50 PM 78.2°F25.7°C 74.7°F23.7°C 89% Calm Calm -- 29.99 in1015.6 mb 0.00 in0.0 mm 0.00 in0.0 mm 0.42 in10.7 mm
06:55 PM 78.3°F25.7°C 74.8°F23.8°C 89% Calm Calm -- 29.99 in1015.6 mb 0.01 in0.3 mm 0.12 in3.0 mm 0.43 in10.9 mm
07:00 PM 78.3°F25.7°C 74.8°F23.8°C 89% Calm Calm -- 29.99 in1015.6 mb 0.01 in0.3 mm 0.00 in0.0 mm 0.43 in10.9 mm
07:05 PM 78.2°F25.7°C 74.7°F23.7°C 89% Calm Calm -- 30.00 in1015.9 mb 0.02 in0.5 mm 0.12 in3.0 mm 0.44 in11.2 mm
07:10 PM 78.2°F25.7°C 75.7°F24.3°C 92% Calm Calm -- 30.00 in1015.9 mb 0.02 in0.5 mm 0.00 in0.0 mm 0.44 in11.2 mm
07:15 PM 78.2°F25.7°C 75.0°F23.9°C 90% Calm Calm -- 30.00 in1015.9 mb 0.03 in0.8 mm 0.12 in3.0 mm 0.45 in11.4 mm
07:20 PM 78.2°F25.7°C 75.0°F23.9°C 90% Calm Calm -- 29.99 in1015.6 mb 0.03 in0.8 mm 0.00 in0.0 mm 0.45 in11.4 mm
07:25 PM 78.1°F25.6°C 76.6°F24.8°C 95% Calm Calm -- 29.99 in1015.6 mb 0.03 in0.8 mm 0.00 in0.0 mm 0.45 in11.4 mm
07:30 PM 78.1°F25.6°C 75.3°F24.1°C 91% Calm Calm -- 30.00 in1015.9 mb 0.04 in1.0 mm 0.12 in3.0 mm 0.46 in11.7 mm
07:35 PM 78.0°F25.6°C 74.5°F23.6°C 89% Calm Calm -- 30.00 in1015.9 mb 0.04 in1.0 mm 0.00 in0.0 mm 0.46 in11.7 mm
07:40 PM 77.9°F25.5°C 74.7°F23.7°C 90% Calm Calm -- 30.00 in1015.9 mb 0.04 in1.0 mm 0.00 in0.0 mm 0.46 in11.7 mm
07:45 PM 77.8°F25.4°C 74.6°F23.7°C 90% Calm Calm -- 29.99 in1015.6 mb 0.04 in1.0 mm 0.00 in0.0 mm 0.46 in11.7 mm
07:50 PM 77.9°F25.5°C 74.7°F23.7°C 90% Calm Calm -- 29.99 in1015.6 mb 0.04 in1.0 mm 0.00 in0.0 mm 0.46 in11.7 mm
07:55 PM 77.8°F25.4°C 74.6°F23.7°C 90% Calm Calm -- 29.99 in1015.6 mb 0.04 in1.0 mm 0.00 in0.0 mm 0.46 in11.7 mm
08:00 PM 77.8°F25.4°C 74.6°F23.7°C 90% Calm Calm -- 29.99 in1015.6 mb 0.03 in0.8 mm 0.00 in0.0 mm 0.46 in11.7 mm
08:05 PM 77.7°F25.4°C 74.5°F23.6°C 90% Calm Calm -- 29.99 in1015.6 mb 0.03 in0.8 mm 0.00 in0.0 mm 0.46 in11.7 mm
08:10 PM 77.6°F25.3°C 74.4°F23.6°C 90% Calm Calm -- 29.98 in1015.2 mb 0.03 in0.8 mm 0.00 in0.0 mm 0.46 in11.7 mm
08:15 PM 77.5°F25.3°C 74.3°F23.5°C 90% Calm Calm -- 29.99 in1015.6 mb 0.03 in0.8 mm 0.00 in0.0 mm 0.46 in11.7 mm
08:20 PM 77.4°F25.2°C 74.2°F23.4°C 90% Calm Calm -- 29.98 in1015.2 mb 0.03 in0.8 mm 0.00 in0.0 mm 0.46 in11.7 mm
08:25 PM 77.3°F25.2°C 74.5°F23.6°C 91% Calm Calm -- 29.98 in1015.2 mb 0.03 in0.8 mm 0.00 in0.0 mm 0.46 in11.7 mm
08:30 PM 77.2°F25.1°C 74.0°F23.3°C 90% Calm Calm -- 29.99 in1015.6 mb 0.03 in0.8 mm 0.00 in0.0 mm 0.46 in11.7 mm
08:35 PM 77.1°F25.1°C 73.9°F23.3°C 90% Calm Calm -- 29.99 in1015.6 mb 0.03 in0.8 mm 0.00 in0.0 mm 0.46 in11.7 mm
08:40 PM 77.0°F25.0°C 74.2°F23.4°C 91% Calm Calm -- 29.99 in1015.6 mb 0.03 in0.8 mm 0.00 in0.0 mm 0.46 in11.7 mm
08:45 PM 77.0°F25.0°C 74.2°F23.4°C 91% Calm Calm -- 30.00 in1015.9 mb 0.03 in0.8 mm 0.00 in0.0 mm 0.46 in11.7 mm
08:50 PM 76.9°F24.9°C 74.1°F23.4°C 91% Calm Calm -- 29.99 in1015.6 mb 0.03 in0.8 mm 0.00 in0.0 mm 0.46 in11.7 mm
08:55 PM 76.8°F24.9°C 74.0°F23.3°C 91% Calm Calm -- 30.00 in1015.9 mb 0.03 in0.8 mm 0.00 in0.0 mm 0.46 in11.7 mm
09:00 PM 76.8°F24.9°C 74.0°F23.3°C 91% Calm Calm -- 30.01 in1016.3 mb 0.00 in0.0 mm 0.00 in0.0 mm 0.46 in11.7 mm
09:05 PM 76.7°F24.8°C 73.9°F23.3°C 91% Calm Calm -- 29.99 in1015.6 mb 0.00 in0.0 mm 0.00 in0.0 mm 0.46 in11.7 mm
09:10 PM 76.7°F24.8°C 73.9°F23.3°C 91% Calm Calm -- 30.00 in1015.9 mb 0.00 in0.0 mm 0.00 in0.0 mm 0.46 in11.7 mm
09:15 PM 76.6°F24.8°C 73.8°F23.2°C 91% Calm Calm -- 30.00 in1015.9 mb 0.00 in0.0 mm 0.00 in0.0 mm 0.46 in11.7 mm
09:20 PM 76.5°F24.7°C 73.7°F23.2°C 91% Calm Calm -- 30.00 in1015.9 mb 0.00 in0.0 mm 0.00 in0.0 mm 0.46 in11.7 mm
09:25 PM 76.5°F24.7°C 73.7°F23.2°C 91% Calm Calm -- 30.00 in1015.9 mb 0.00 in0.0 mm 0.00 in0.0 mm 0.46 in11.7 mm
09:30 PM 76.5°F24.7°C 74.0°F23.3°C 92% Calm Calm -- 29.99 in1015.6 mb 0.00 in0.0 mm 0.00 in0.0 mm 0.46 in11.7 mm
09:35 PM 76.4°F24.7°C 73.9°F23.3°C 92% Calm Calm -- 29.99 in1015.6 mb 0.00 in0.0 mm 0.00 in0.0 mm 0.46 in11.7 mm
09:40 PM 76.4°F24.7°C 73.9°F23.3°C 92% Calm Calm -- 30.00 in1015.9 mb 0.00 in0.0 mm 0.00 in0.0 mm 0.46 in11.7 mm
09:45 PM 76.3°F24.6°C 73.8°F23.2°C 92% Calm Calm -- 29.99 in1015.6 mb 0.00 in0.0 mm 0.00 in0.0 mm 0.46 in11.7 mm
09:50 PM 76.3°F24.6°C 73.8°F23.2°C 92% Calm Calm -- 29.99 in1015.6 mb 0.00 in0.0 mm 0.00 in0.0 mm 0.46 in11.7 mm
09:55 PM 76.3°F24.6°C 73.8°F23.2°C 92% Calm Calm -- 29.99 in1015.6 mb 0.00 in0.0 mm 0.00 in0.0 mm 0.46 in11.7 mm
10:00 PM 76.3°F24.6°C 74.8°F23.8°C 95% Calm Calm -- 30.00 in1015.9 mb 0.00 in0.0 mm 0.00 in0.0 mm 0.46 in11.7 mm
10:05 PM 76.2°F24.6°C 73.7°F23.2°C 92% Calm Calm -- 29.99 in1015.6 mb 0.00 in0.0 mm 0.00 in0.0 mm 0.46 in11.7 mm
10:10 PM 76.2°F24.6°C 73.7°F23.2°C 92% Calm Calm -- 29.99 in1015.6 mb 0.00 in0.0 mm 0.00 in0.0 mm 0.46 in11.7 mm
10:15 PM 76.2°F24.6°C 74.0°F23.3°C 93% Calm Calm -- 30.00 in1015.9 mb 0.00 in0.0 mm 0.00 in0.0 mm 0.46 in11.7 mm
10:20 PM 76.2°F24.6°C 74.0°F23.3°C 93% Calm Calm -- 29.99 in1015.6 mb 0.00 in0.0 mm 0.00 in0.0 mm 0.46 in11.7 mm
10:25 PM 76.1°F24.5°C 73.9°F23.3°C 93% Calm Calm -- 30.00 in1015.9 mb 0.00 in0.0 mm 0.00 in0.0 mm 0.46 in11.7 mm
10:30 PM 76.1°F24.5°C 73.9°F23.3°C 93% Calm Calm -- 29.99 in1015.6 mb 0.00 in0.0 mm 0.00 in0.0 mm 0.46 in11.7 mm
10:35 PM 76.0°F24.4°C 73.8°F23.2°C 93% Calm Calm -- 29.99 in1015.6 mb 0.00 in0.0 mm 0.00 in0.0 mm 0.46 in11.7 mm
10:40 PM 76.0°F24.4°C 74.2°F23.4°C 94% Calm Calm -- 30.00 in1015.9 mb 0.00 in0.0 mm 0.00 in0.0 mm 0.46 in11.7 mm
10:45 PM 76.0°F24.4°C 73.8°F23.2°C 93% Calm Calm -- 29.99 in1015.6 mb 0.00 in0.0 mm 0.00 in0.0 mm 0.46 in11.7 mm
10:50 PM 75.9°F24.4°C 73.7°F23.2°C 93% Calm Calm -- 29.99 in1015.6 mb 0.00 in0.0 mm 0.00 in0.0 mm 0.46 in11.7 mm
10:55 PM 75.9°F24.4°C 73.7°F23.2°C 93% Calm Calm -- 29.99 in1015.6 mb 0.00 in0.0 mm 0.00 in0.0 mm 0.46 in11.7 mm
11:00 PM 75.9°F24.4°C 74.1°F23.4°C 94% Calm Calm -- 29.99 in1015.6 mb 0.00 in0.0 mm 0.00 in0.0 mm 0.46 in11.7 mm
11:05 PM 75.9°F24.4°C 73.7°F23.2°C 93% Calm Calm -- 29.99 in1015.6 mb 0.00 in0.0 mm 0.00 in0.0 mm 0.46 in11.7 mm
11:10 PM 75.8°F24.3°C 74.0°F23.3°C 94% Calm Calm -- 29.99 in1015.6 mb 0.00 in0.0 mm 0.00 in0.0 mm 0.46 in11.7 mm
11:15 PM 75.8°F24.3°C 74.0°F23.3°C 94% Calm Calm -- 29.99 in1015.6 mb 0.00 in0.0 mm 0.00 in0.0 mm 0.46 in11.7 mm
11:20 PM 75.7°F24.3°C 73.9°F23.3°C 94% Calm Calm -- 29.98 in1015.2 mb 0.00 in0.0 mm 0.00 in0.0 mm 0.46 in11.7 mm
11:25 PM 75.7°F24.3°C 73.9°F23.3°C 94% Calm Calm -- 29.99 in1015.6 mb 0.00 in0.0 mm 0.00 in0.0 mm 0.46 in11.7 mm
11:30 PM 75.6°F24.2°C 73.8°F23.2°C 94% Calm Calm -- 29.98 in1015.2 mb 0.00 in0.0 mm 0.00 in0.0 mm 0.46 in11.7 mm
11:35 PM 75.4°F24.1°C 73.6°F23.1°C 94% Calm Calm -- 29.99 in1015.6 mb 0.00 in0.0 mm 0.00 in0.0 mm 0.46 in11.7 mm
11:40 PM 75.3°F24.1°C 73.5°F23.1°C 94% Calm Calm -- 29.98 in1015.2 mb 0.00 in0.0 mm 0.00 in0.0 mm 0.46 in11.7 mm
11:45 PM 75.2°F24.0°C 74.0°F23.3°C 96% Calm Calm -- 29.98 in1015.2 mb 0.00 in0.0 mm 0.00 in0.0 mm 0.46 in11.7 mm
11:50 PM 75.0°F23.9°C 73.2°F22.9°C 94% Calm Calm -- 29.98 in1015.2 mb 0.00 in0.0 mm 0.00 in0.0 mm 0.46 in11.7 mm
11:55 PM 75.0°F23.9°C 73.5°F23.1°C 95% Calm Calm -- 29.98 in1015.2 mb 0.00 in0.0 mm 0.00 in0.0 mm 0.46 in11.7 mm